sensor_id;sensor_type;location;lat;lon;timestamp;P1;durP1;ratioP1;P2;durP2;ratioP2
37085;SDS011;23001;45.952;12.676;2022-11-25T00:01:08;29.85;;;21.85;;
37085;SDS011;23001;45.952;12.676;2022-11-25T00:03:38;27.42;;;19.58;;
37085;SDS011;23001;45.952;12.676;2022-11-25T00:06:23;26.48;;;19.40;;
37085;SDS011;23001;45.952;12.676;2022-11-25T00:08:52;25.90;;;20.25;;
37085;SDS011;23001;45.952;12.676;2022-11-25T00:11:21;28.15;;;20.95;;
37085;SDS011;23001;45.952;12.676;2022-11-25T00:13:47;26.00;;;19.88;;
37085;SDS011;23001;45.952;12.676;2022-11-25T00:16:17;24.90;;;19.25;;
37085;SDS011;23001;45.952;12.676;2022-11-25T00:18:48;25.42;;;20.05;;
37085;SDS011;23001;45.952;12.676;2022-11-25T00:21:16;25.35;;;19.73;;
37085;SDS011;23001;45.952;12.676;2022-11-25T00:23:49;25.90;;;18.80;;
37085;SDS011;23001;45.952;12.676;2022-11-25T00:26:16;25.67;;;19.60;;
37085;SDS011;23001;45.952;12.676;2022-11-25T00:28:42;24.13;;;18.77;;
37085;SDS011;23001;45.952;12.676;2022-11-25T00:31:13;28.05;;;20.08;;
37085;SDS011;23001;45.952;12.676;2022-11-25T00:33:41;30.38;;;20.30;;
37085;SDS011;23001;45.952;12.676;2022-11-25T00:36:14;26.55;;;20.48;;
37085;SDS011;23001;45.952;12.676;2022-11-25T00:38:40;26.88;;;19.27;;
37085;SDS011;23001;45.952;12.676;2022-11-25T00:41:06;26.55;;;20.00;;
37085;SDS011;23001;45.952;12.676;2022-11-25T00:43:55;25.98;;;20.38;;
37085;SDS011;23001;45.952;12.676;2022-11-25T00:46:39;24.75;;;19.35;;
37085;SDS011;23001;45.952;12.676;2022-11-25T00:49:05;26.50;;;19.33;;
37085;SDS011;23001;45.952;12.676;2022-11-25T00:51:31;24.40;;;19.63;;
37085;SDS011;23001;45.952;12.676;2022-11-25T00:53:57;27.90;;;20.65;;
37085;SDS011;23001;45.952;12.676;2022-11-25T00:56:23;31.10;;;21.77;;
37085;SDS011;23001;45.952;12.676;2022-11-25T00:58:48;28.73;;;21.23;;
37085;SDS011;23001;45.952;12.676;2022-11-25T01:01:16;28.77;;;21.83;;
37085;SDS011;23001;45.952;12.676;2022-11-25T01:03:42;30.60;;;23.52;;
37085;SDS011;23001;45.952;12.676;2022-11-25T01:06:09;33.38;;;23.02;;
37085;SDS011;23001;45.952;12.676;2022-11-25T01:08:35;31.08;;;21.40;;
37085;SDS011;23001;45.952;12.676;2022-11-25T01:11:06;28.80;;;18.90;;
37085;SDS011;23001;45.952;12.676;2022-11-25T01:13:34;28.55;;;20.25;;
37085;SDS011;23001;45.952;12.676;2022-11-25T01:16:01;18.77;;;14.57;;
37085;SDS011;23001;45.952;12.676;2022-11-25T01:18:30;14.50;;;11.63;;
37085;SDS011;23001;45.952;12.676;2022-11-25T01:23:39;16.02;;;12.48;;
37085;SDS011;23001;45.952;12.676;2022-11-25T01:26:07;14.73;;;12.52;;
37085;SDS011;23001;45.952;12.676;2022-11-25T01:28:34;17.02;;;12.52;;
37085;SDS011;23001;45.952;12.676;2022-11-25T01:31:11;17.65;;;12.93;;
37085;SDS011;23001;45.952;12.676;2022-11-25T01:33:39;18.08;;;13.13;;
37085;SDS011;23001;45.952;12.676;2022-11-25T01:36:06;16.92;;;13.25;;
37085;SDS011;23001;45.952;12.676;2022-11-25T01:38:34;13.90;;;11.32;;
37085;SDS011;23001;45.952;12.676;2022-11-25T01:41:01;15.10;;;11.45;;
37085;SDS011;23001;45.952;12.676;2022-11-25T01:43:28;14.88;;;11.90;;
37085;SDS011;23001;45.952;12.676;2022-11-25T01:45:55;15.23;;;10.25;;
37085;SDS011;23001;45.952;12.676;2022-11-25T01:48:46;12.25;;;9.43;;
37085;SDS011;23001;45.952;12.676;2022-11-25T01:51:25;14.10;;;9.35;;
37085;SDS011;23001;45.952;12.676;2022-11-25T01:56:49;14.73;;;10.23;;
37085;SDS011;23001;45.952;12.676;2022-11-25T01:59:22;12.98;;;9.45;;
37085;SDS011;23001;45.952;12.676;2022-11-25T02:01:48;13.88;;;10.32;;
37085;SDS011;23001;45.952;12.676;2022-11-25T02:04:14;14.15;;;9.52;;
37085;SDS011;23001;45.952;12.676;2022-11-25T02:06:50;13.32;;;10.68;;
37085;SDS011;23001;45.952;12.676;2022-11-25T02:09:21;11.70;;;9.18;;
37085;SDS011;23001;45.952;12.676;2022-11-25T02:11:47;11.77;;;9.27;;
37085;SDS011;23001;45.952;12.676;2022-11-25T02:14:15;11.60;;;8.40;;
37085;SDS011;23001;45.952;12.676;2022-11-25T02:16:44;10.85;;;8.45;;
37085;SDS011;23001;45.952;12.676;2022-11-25T02:19:14;11.43;;;8.52;;
37085;SDS011;23001;45.952;12.676;2022-11-25T02:21:58;12.70;;;9.10;;
37085;SDS011;23001;45.952;12.676;2022-11-25T02:24:31;13.43;;;9.10;;
37085;SDS011;23001;45.952;12.676;2022-11-25T02:27:20;12.65;;;9.63;;
37085;SDS011;23001;45.952;12.676;2022-11-25T02:29:46;11.48;;;8.40;;
37085;SDS011;23001;45.952;12.676;2022-11-25T02:32:13;9.35;;;6.63;;
37085;SDS011;23001;45.952;12.676;2022-11-25T02:34:45;7.63;;;6.18;;
37085;SDS011;23001;45.952;12.676;2022-11-25T02:37:12;7.30;;;5.70;;
37085;SDS011;23001;45.952;12.676;2022-11-25T02:39:39;6.63;;;5.32;;
37085;SDS011;23001;45.952;12.676;2022-11-25T02:42:05;5.95;;;5.35;;
37085;SDS011;23001;45.952;12.676;2022-11-25T02:44:31;7.30;;;4.88;;
37085;SDS011;23001;45.952;12.676;2022-11-25T02:46:57;6.15;;;5.20;;
37085;SDS011;23001;45.952;12.676;2022-11-25T02:49:23;5.82;;;4.30;;
37085;SDS011;23001;45.952;12.676;2022-11-25T02:51:48;5.65;;;4.15;;
37085;SDS011;23001;45.952;12.676;2022-11-25T02:54:14;5.70;;;4.30;;
37085;SDS011;23001;45.952;12.676;2022-11-25T02:56:40;5.93;;;4.32;;
37085;SDS011;23001;45.952;12.676;2022-11-25T02:59:06;4.70;;;4.15;;
37085;SDS011;23001;45.952;12.676;2022-11-25T03:01:32;3.95;;;3.53;;
37085;SDS011;23001;45.952;12.676;2022-11-25T03:04:02;5.78;;;4.15;;
37085;SDS011;23001;45.952;12.676;2022-11-25T03:06:28;4.10;;;3.70;;
37085;SDS011;23001;45.952;12.676;2022-11-25T03:08:54;5.80;;;4.78;;
37085;SDS011;23001;45.952;12.676;2022-11-25T03:11:20;5.55;;;3.85;;
37085;SDS011;23001;45.952;12.676;2022-11-25T03:16:32;4.00;;;3.20;;
37085;SDS011;23001;45.952;12.676;2022-11-25T03:18:57;4.97;;;3.80;;
37085;SDS011;23001;45.952;12.676;2022-11-25T03:21:23;3.38;;;3.08;;
37085;SDS011;23001;45.952;12.676;2022-11-25T03:23:48;3.38;;;3.00;;
37085;SDS011;23001;45.952;12.676;2022-11-25T03:26:14;3.95;;;2.83;;
37085;SDS011;23001;45.952;12.676;2022-11-25T03:28:40;3.40;;;3.10;;
37085;SDS011;23001;45.952;12.676;2022-11-25T03:31:09;5.70;;;3.58;;
37085;SDS011;23001;45.952;12.676;2022-11-25T03:33:35;3.10;;;2.80;;
37085;SDS011;23001;45.952;12.676;2022-11-25T03:36:01;4.18;;;2.85;;
37085;SDS011;23001;45.952;12.676;2022-11-25T03:38:26;3.85;;;3.45;;
37085;SDS011;23001;45.952;12.676;2022-11-25T03:40:52;3.47;;;2.88;;
37085;SDS011;23001;45.952;12.676;2022-11-25T03:43:18;3.45;;;3.10;;
37085;SDS011;23001;45.952;12.676;2022-11-25T03:45:46;3.72;;;3.22;;
37085;SDS011;23001;45.952;12.676;2022-11-25T03:48:13;4.07;;;3.13;;
37085;SDS011;23001;45.952;12.676;2022-11-25T03:50:39;4.45;;;3.65;;
37085;SDS011;23001;45.952;12.676;2022-11-25T03:53:06;3.05;;;2.75;;
37085;SDS011;23001;45.952;12.676;2022-11-25T03:55:31;4.05;;;3.00;;
37085;SDS011;23001;45.952;12.676;2022-11-25T03:57:57;5.18;;;3.70;;
37085;SDS011;23001;45.952;12.676;2022-11-25T04:00:23;3.58;;;3.28;;
37085;SDS011;23001;45.952;12.676;2022-11-25T04:02:48;3.60;;;3.03;;
37085;SDS011;23001;45.952;12.676;2022-11-25T04:05:14;3.97;;;2.92;;
37085;SDS011;23001;45.952;12.676;2022-11-25T04:07:40;3.80;;;3.38;;
37085;SDS011;23001;45.952;12.676;2022-11-25T04:10:06;3.47;;;3.17;;
37085;SDS011;23001;45.952;12.676;2022-11-25T04:12:32;3.30;;;2.83;;
37085;SDS011;23001;45.952;12.676;2022-11-25T04:15:13;5.55;;;3.08;;
37085;SDS011;23001;45.952;12.676;2022-11-25T04:17:40;3.70;;;2.72;;
37085;SDS011;23001;45.952;12.676;2022-11-25T04:20:06;4.68;;;3.05;;
37085;SDS011;23001;45.952;12.676;2022-11-25T04:22:32;4.78;;;3.30;;
37085;SDS011;23001;45.952;12.676;2022-11-25T04:24:58;3.63;;;3.10;;
37085;SDS011;23001;45.952;12.676;2022-11-25T04:27:23;3.22;;;2.92;;
37085;SDS011;23001;45.952;12.676;2022-11-25T04:29:49;3.67;;;3.05;;
37085;SDS011;23001;45.952;12.676;2022-11-25T04:32:15;3.13;;;2.83;;
37085;SDS011;23001;45.952;12.676;2022-11-25T04:34:40;3.20;;;2.88;;
37085;SDS011;23001;45.952;12.676;2022-11-25T04:37:06;4.50;;;2.78;;
37085;SDS011;23001;45.952;12.676;2022-11-25T04:39:32;5.38;;;3.50;;
37085;SDS011;23001;45.952;12.676;2022-11-25T04:41:57;4.22;;;3.30;;
37085;SDS011;23001;45.952;12.676;2022-11-25T04:44:41;3.95;;;3.35;;
37085;SDS011;23001;45.952;12.676;2022-11-25T04:47:07;5.45;;;3.92;;
37085;SDS011;23001;45.952;12.676;2022-11-25T04:49:32;4.28;;;3.08;;
37085;SDS011;23001;45.952;12.676;2022-11-25T04:51:58;7.43;;;5.03;;
37085;SDS011;23001;45.952;12.676;2022-11-25T04:54:24;10.43;;;4.32;;
37085;SDS011;23001;45.952;12.676;2022-11-25T04:56:49;5.78;;;4.32;;
37085;SDS011;23001;45.952;12.676;2022-11-25T04:59:15;5.07;;;3.58;;
37085;SDS011;23001;45.952;12.676;2022-11-25T05:01:59;3.13;;;2.83;;
37085;SDS011;23001;45.952;12.676;2022-11-25T05:04:25;6.70;;;4.55;;
37085;SDS011;23001;45.952;12.676;2022-11-25T05:06:50;7.20;;;4.47;;
37085;SDS011;23001;45.952;12.676;2022-11-25T05:09:16;7.32;;;4.63;;
37085;SDS011;23001;45.952;12.676;2022-11-25T05:11:42;7.30;;;4.60;;
37085;SDS011;23001;45.952;12.676;2022-11-25T05:14:08;6.53;;;5.00;;
37085;SDS011;23001;45.952;12.676;2022-11-25T05:16:33;10.23;;;4.97;;
37085;SDS011;23001;45.952;12.676;2022-11-25T05:18:59;6.63;;;4.50;;
37085;SDS011;23001;45.952;12.676;2022-11-25T05:21:25;7.28;;;4.70;;
37085;SDS011;23001;45.952;12.676;2022-11-25T05:23:50;7.53;;;5.32;;
37085;SDS011;23001;45.952;12.676;2022-11-25T05:26:18;9.98;;;6.13;;
37085;SDS011;23001;45.952;12.676;2022-11-25T05:28:44;10.68;;;6.75;;
37085;SDS011;23001;45.952;12.676;2022-11-25T05:31:09;9.73;;;6.07;;
37085;SDS011;23001;45.952;12.676;2022-11-25T05:33:35;8.20;;;5.20;;
37085;SDS011;23001;45.952;12.676;2022-11-25T05:36:01;8.20;;;4.03;;
37085;SDS011;23001;45.952;12.676;2022-11-25T05:38:28;6.78;;;4.20;;
37085;SDS011;23001;45.952;12.676;2022-11-25T05:40:59;5.60;;;4.68;;
37085;SDS011;23001;45.952;12.676;2022-11-25T05:43:26;6.28;;;4.60;;
37085;SDS011;23001;45.952;12.676;2022-11-25T05:45:52;9.18;;;5.88;;
37085;SDS011;23001;45.952;12.676;2022-11-25T05:48:17;8.30;;;6.75;;
37085;SDS011;23001;45.952;12.676;2022-11-25T05:50:43;12.07;;;8.48;;
37085;SDS011;23001;45.952;12.676;2022-11-25T05:53:09;13.93;;;9.85;;
37085;SDS011;23001;45.952;12.676;2022-11-25T05:55:35;11.85;;;7.50;;
37085;SDS011;23001;45.952;12.676;2022-11-25T05:58:01;10.95;;;6.97;;
37085;SDS011;23001;45.952;12.676;2022-11-25T06:00:28;9.32;;;6.60;;
37085;SDS011;23001;45.952;12.676;2022-11-25T06:02:54;11.88;;;6.40;;
37085;SDS011;23001;45.952;12.676;2022-11-25T06:05:20;11.07;;;7.32;;
37085;SDS011;23001;45.952;12.676;2022-11-25T06:07:45;6.13;;;5.50;;
37085;SDS011;23001;45.952;12.676;2022-11-25T06:10:11;7.45;;;5.70;;
37085;SDS011;23001;45.952;12.676;2022-11-25T06:12:37;8.32;;;6.30;;
37085;SDS011;23001;45.952;12.676;2022-11-25T06:15:03;8.88;;;6.95;;
37085;SDS011;23001;45.952;12.676;2022-11-25T06:17:29;7.95;;;6.05;;
37085;SDS011;23001;45.952;12.676;2022-11-25T06:19:54;11.60;;;6.82;;
37085;SDS011;23001;45.952;12.676;2022-11-25T06:22:20;7.40;;;6.60;;
37085;SDS011;23001;45.952;12.676;2022-11-25T06:24:46;8.75;;;6.70;;
37085;SDS011;23001;45.952;12.676;2022-11-25T06:27:11;14.23;;;6.75;;
37085;SDS011;23001;45.952;12.676;2022-11-25T06:29:37;8.73;;;6.05;;
37085;SDS011;23001;45.952;12.676;2022-11-25T06:32:03;10.90;;;6.75;;
37085;SDS011;23001;45.952;12.676;2022-11-25T06:34:29;9.63;;;7.30;;
37085;SDS011;23001;45.952;12.676;2022-11-25T06:36:54;11.25;;;6.95;;
37085;SDS011;23001;45.952;12.676;2022-11-25T06:39:20;12.65;;;7.22;;
37085;SDS011;23001;45.952;12.676;2022-11-25T06:41:46;9.88;;;7.32;;
37085;SDS011;23001;45.952;12.676;2022-11-25T06:44:21;7.90;;;7.10;;
37085;SDS011;23001;45.952;12.676;2022-11-25T06:46:50;12.57;;;7.03;;
37085;SDS011;23001;45.952;12.676;2022-11-25T06:49:16;8.23;;;6.22;;
37085;SDS011;23001;45.952;12.676;2022-11-25T06:51:42;9.38;;;6.15;;
37085;SDS011;23001;45.952;12.676;2022-11-25T06:54:07;9.82;;;5.82;;
37085;SDS011;23001;45.952;12.676;2022-11-25T06:56:34;8.27;;;5.43;;
37085;SDS011;23001;45.952;12.676;2022-11-25T06:59:00;10.77;;;7.90;;
37085;SDS011;23001;45.952;12.676;2022-11-25T07:01:28;10.20;;;8.02;;
37085;SDS011;23001;45.952;12.676;2022-11-25T07:03:59;9.88;;;7.80;;
37085;SDS011;23001;45.952;12.676;2022-11-25T07:06:27;13.57;;;9.35;;
37085;SDS011;23001;45.952;12.676;2022-11-25T07:08:54;12.23;;;9.80;;
37085;SDS011;23001;45.952;12.676;2022-11-25T07:11:21;11.05;;;7.55;;
37085;SDS011;23001;45.952;12.676;2022-11-25T07:13:58;7.20;;;5.65;;
37085;SDS011;23001;45.952;12.676;2022-11-25T07:16:26;8.68;;;6.97;;
37085;SDS011;23001;45.952;12.676;2022-11-25T07:18:52;8.52;;;6.93;;
37085;SDS011;23001;45.952;12.676;2022-11-25T07:21:19;14.82;;;9.57;;
37085;SDS011;23001;45.952;12.676;2022-11-25T07:23:48;20.83;;;11.48;;
37085;SDS011;23001;45.952;12.676;2022-11-25T07:26:16;10.88;;;6.82;;
37085;SDS011;23001;45.952;12.676;2022-11-25T07:28:47;7.90;;;6.47;;
37085;SDS011;23001;45.952;12.676;2022-11-25T07:33:41;6.28;;;4.97;;
37085;SDS011;23001;45.952;12.676;2022-11-25T07:36:08;6.47;;;4.60;;
37085;SDS011;23001;45.952;12.676;2022-11-25T07:38:35;8.20;;;4.82;;
37085;SDS011;23001;45.952;12.676;2022-11-25T07:41:09;7.20;;;5.47;;
37085;SDS011;23001;45.952;12.676;2022-11-25T07:43:37;8.75;;;5.40;;
37085;SDS011;23001;45.952;12.676;2022-11-25T07:46:07;7.68;;;4.97;;
37085;SDS011;23001;45.952;12.676;2022-11-25T07:48:43;5.00;;;4.22;;
37085;SDS011;23001;45.952;12.676;2022-11-25T07:51:17;5.32;;;3.85;;
37085;SDS011;23001;45.952;12.676;2022-11-25T07:53:48;7.75;;;4.10;;
37085;SDS011;23001;45.952;12.676;2022-11-25T07:56:14;7.05;;;3.42;;
37085;SDS011;23001;45.952;12.676;2022-11-25T07:58:42;4.03;;;3.35;;
37085;SDS011;23001;45.952;12.676;2022-11-25T08:01:09;4.65;;;3.35;;
37085;SDS011;23001;45.952;12.676;2022-11-25T08:03:37;5.20;;;3.25;;
37085;SDS011;23001;45.952;12.676;2022-11-25T08:06:08;7.30;;;3.60;;
37085;SDS011;23001;45.952;12.676;2022-11-25T08:08:37;4.43;;;3.58;;
37085;SDS011;23001;45.952;12.676;2022-11-25T08:11:13;4.30;;;3.88;;
37085;SDS011;23001;45.952;12.676;2022-11-25T08:13:49;4.95;;;3.60;;
37085;SDS011;23001;45.952;12.676;2022-11-25T08:16:16;5.22;;;3.78;;
37085;SDS011;23001;45.952;12.676;2022-11-25T08:18:47;4.78;;;3.50;;
37085;SDS011;23001;45.952;12.676;2022-11-25T08:21:16;7.07;;;3.22;;
37085;SDS011;23001;45.952;12.676;2022-11-25T08:23:45;6.68;;;3.60;;
37085;SDS011;23001;45.952;12.676;2022-11-25T08:26:38;6.45;;;3.00;;
37085;SDS011;23001;45.952;12.676;2022-11-25T08:29:04;3.80;;;2.47;;
37085;SDS011;23001;45.952;12.676;2022-11-25T08:31:32;3.55;;;2.63;;
37085;SDS011;23001;45.952;12.676;2022-11-25T08:34:00;4.38;;;3.10;;
37085;SDS011;23001;45.952;12.676;2022-11-25T08:36:27;3.80;;;3.15;;
37085;SDS011;23001;45.952;12.676;2022-11-25T08:38:55;4.20;;;2.85;;
37085;SDS011;23001;45.952;12.676;2022-11-25T08:41:26;2.63;;;2.42;;
37085;SDS011;23001;45.952;12.676;2022-11-25T08:43:55;3.90;;;2.95;;
37085;SDS011;23001;45.952;12.676;2022-11-25T08:46:24;4.57;;;2.83;;
37085;SDS011;23001;45.952;12.676;2022-11-25T08:54:07;3.53;;;2.45;;
37085;SDS011;23001;45.952;12.676;2022-11-25T08:59:55;4.93;;;2.63;;
37085;SDS011;23001;45.952;12.676;2022-11-25T09:02:21;3.65;;;2.90;;
37085;SDS011;23001;45.952;12.676;2022-11-25T09:04:47;3.90;;;2.38;;
37085;SDS011;23001;45.952;12.676;2022-11-25T09:07:13;5.28;;;2.40;;
37085;SDS011;23001;45.952;12.676;2022-11-25T09:09:38;4.00;;;3.10;;
37085;SDS011;23001;45.952;12.676;2022-11-25T09:12:04;3.08;;;2.78;;
37085;SDS011;23001;45.952;12.676;2022-11-25T09:14:30;4.57;;;2.05;;
37085;SDS011;23001;45.952;12.676;2022-11-25T09:16:59;2.75;;;2.20;;
37085;SDS011;23001;45.952;12.676;2022-11-25T09:19:26;4.72;;;2.28;;
37085;SDS011;23001;45.952;12.676;2022-11-25T09:21:52;2.78;;;2.45;;
37085;SDS011;23001;45.952;12.676;2022-11-25T09:24:18;3.47;;;2.08;;
37085;SDS011;23001;45.952;12.676;2022-11-25T09:26:44;2.28;;;2.08;;
37085;SDS011;23001;45.952;12.676;2022-11-25T09:29:10;3.25;;;1.80;;
37085;SDS011;23001;45.952;12.676;2022-11-25T09:31:38;4.70;;;1.73;;
37085;SDS011;23001;45.952;12.676;2022-11-25T09:34:04;2.08;;;1.60;;
37085;SDS011;23001;45.952;12.676;2022-11-25T09:36:31;3.78;;;2.17;;
37085;SDS011;23001;45.952;12.676;2022-11-25T09:38:56;2.75;;;1.67;;
37085;SDS011;23001;45.952;12.676;2022-11-25T09:44:26;1.58;;;1.42;;
37085;SDS011;23001;45.952;12.676;2022-11-25T09:50:29;1.63;;;1.30;;
37085;SDS011;23001;45.952;12.676;2022-11-25T09:55:49;1.35;;;1.25;;
37085;SDS011;23001;45.952;12.676;2022-11-25T09:58:28;2.10;;;1.17;;
37085;SDS011;23001;45.952;12.676;2022-11-25T10:01:13;1.30;;;1.20;;
37085;SDS011;23001;45.952;12.676;2022-11-25T10:03:46;3.95;;;1.42;;
37085;SDS011;23001;45.952;12.676;2022-11-25T10:06:25;2.65;;;1.30;;
37085;SDS011;23001;45.952;12.676;2022-11-25T10:09:00;2.10;;;1.15;;
37085;SDS011;23001;45.952;12.676;2022-11-25T10:14:31;3.13;;;1.13;;
37085;SDS011;23001;45.952;12.676;2022-11-25T10:17:06;1.58;;;1.48;;
37085;SDS011;23001;45.952;12.676;2022-11-25T10:19:56;2.85;;;1.60;;
37085;SDS011;23001;45.952;12.676;2022-11-25T10:26:01;3.30;;;1.60;;
37085;SDS011;23001;45.952;12.676;2022-11-25T10:28:37;3.13;;;1.77;;
37085;SDS011;23001;45.952;12.676;2022-11-25T10:31:16;2.00;;;1.80;;
37085;SDS011;23001;45.952;12.676;2022-11-25T10:33:46;3.40;;;2.53;;
37085;SDS011;23001;45.952;12.676;2022-11-25T10:36:19;5.20;;;2.20;;
37085;SDS011;23001;45.952;12.676;2022-11-25T10:41:34;2.75;;;2.28;;
37085;SDS011;23001;45.952;12.676;2022-11-25T10:44:13;5.63;;;2.20;;
37085;SDS011;23001;45.952;12.676;2022-11-25T10:47:02;4.18;;;2.33;;
37085;SDS011;23001;45.952;12.676;2022-11-25T10:52:25;2.30;;;1.88;;
37085;SDS011;23001;45.952;12.676;2022-11-25T10:55:09;1.65;;;1.55;;
37085;SDS011;23001;45.952;12.676;2022-11-25T11:01:03;1.60;;;1.50;;
37085;SDS011;23001;45.952;12.676;2022-11-25T11:03:47;2.15;;;1.25;;
37085;SDS011;23001;45.952;12.676;2022-11-25T11:06:49;1.65;;;1.20;;
37085;SDS011;23001;45.952;12.676;2022-11-25T11:09:57;2.08;;;1.40;;
37085;SDS011;23001;45.952;12.676;2022-11-25T11:14:53;1.90;;;1.67;;
37085;SDS011;23001;45.952;12.676;2022-11-25T11:17:44;3.25;;;1.50;;
37085;SDS011;23001;45.952;12.676;2022-11-25T11:20:15;2.40;;;1.80;;
37085;SDS011;23001;45.952;12.676;2022-11-25T11:22:54;3.47;;;1.90;;
37085;SDS011;23001;45.952;12.676;2022-11-25T11:25:31;2.65;;;1.88;;
37085;SDS011;23001;45.952;12.676;2022-11-25T15:33:34;14.23;;;9.65;;
37085;SDS011;23001;45.952;12.676;2022-11-25T16:01:39;14.80;;;10.43;;
37085;SDS011;23001;45.952;12.676;2022-11-25T16:16:28;16.23;;;12.23;;
37085;SDS011;23001;45.952;12.676;2022-11-25T16:19:38;21.25;;;14.68;;
